sensor_id;sensor_type;location;lat;lon;timestamp;temperature;humidity
59146;DHT22;44928;53.074;6.646;2024-02-15T00:00:10;11.30;99.90
59146;DHT22;44928;53.074;6.646;2024-02-15T00:02:36;11.30;99.90
59146;DHT22;44928;53.074;6.646;2024-02-15T00:05:02;11.30;99.90
59146;DHT22;44928;53.074;6.646;2024-02-15T00:07:28;11.30;99.90
59146;DHT22;44928;53.074;6.646;2024-02-15T00:09:54;11.30;99.90
59146;DHT22;44928;53.074;6.646;2024-02-15T00:12:20;11.30;99.90
59146;DHT22;44928;53.074;6.646;2024-02-15T00:14:46;11.30;99.90
59146;DHT22;44928;53.074;6.646;2024-02-15T00:17:12;11.40;99.90
59146;DHT22;44928;53.074;6.646;2024-02-15T00:19:38;11.40;99.90
59146;DHT22;44928;53.074;6.646;2024-02-15T00:22:05;11.40;99.90
59146;DHT22;44928;53.074;6.646;2024-02-15T00:24:31;11.30;99.90
59146;DHT22;44928;53.074;6.646;2024-02-15T00:26:57;11.30;99.90
59146;DHT22;44928;53.074;6.646;2024-02-15T00:29:23;11.30;99.90
59146;DHT22;44928;53.074;6.646;2024-02-15T00:31:50;11.30;99.90
59146;DHT22;44928;53.074;6.646;2024-02-15T00:34:16;11.30;99.90
59146;DHT22;44928;53.074;6.646;2024-02-15T00:36:43;11.30;99.90
59146;DHT22;44928;53.074;6.646;2024-02-15T00:39:10;11.30;99.90
59146;DHT22;44928;53.074;6.646;2024-02-15T00:41:37;11.30;99.90
59146;DHT22;44928;53.074;6.646;2024-02-15T00:44:10;11.30;99.90
59146;DHT22;44928;53.074;6.646;2024-02-15T00:46:37;11.30;99.90
59146;DHT22;44928;53.074;6.646;2024-02-15T00:49:04;11.30;99.90
59146;DHT22;44928;53.074;6.646;2024-02-15T00:51:35;11.30;99.90
59146;DHT22;44928;53.074;6.646;2024-02-15T00:54:02;11.30;99.90
59146;DHT22;44928;53.074;6.646;2024-02-15T00:56:28;11.30;99.90
59146;DHT22;44928;53.074;6.646;2024-02-15T00:58:55;11.30;99.90
59146;DHT22;44928;53.074;6.646;2024-02-15T01:01:22;11.30;99.90
59146;DHT22;44928;53.074;6.646;2024-02-15T01:03:47;11.40;99.90
59146;DHT22;44928;53.074;6.646;2024-02-15T01:06:13;11.30;99.90
59146;DHT22;44928;53.074;6.646;2024-02-15T01:08:39;11.40;99.90
59146;DHT22;44928;53.074;6.646;2024-02-15T01:11:05;11.40;99.90
59146;DHT22;44928;53.074;6.646;2024-02-15T01:13:31;11.40;99.90
59146;DHT22;44928;53.074;6.646;2024-02-15T01:15:57;11.40;99.90
59146;DHT22;44928;53.074;6.646;2024-02-15T01:18:23;11.30;99.90
59146;DHT22;44928;53.074;6.646;2024-02-15T01:20:49;11.40;99.90
59146;DHT22;44928;53.074;6.646;2024-02-15T01:23:15;11.40;99.90
59146;DHT22;44928;53.074;6.646;2024-02-15T01:25:41;11.40;99.90
59146;DHT22;44928;53.074;6.646;2024-02-15T01:28:06;11.30;99.90
59146;DHT22;44928;53.074;6.646;2024-02-15T01:30:32;11.40;99.90
59146;DHT22;44928;53.074;6.646;2024-02-15T01:32:58;11.40;99.90
59146;DHT22;44928;53.074;6.646;2024-02-15T01:35:26;11.40;99.90
59146;DHT22;44928;53.074;6.646;2024-02-15T01:37:52;11.40;99.90
59146;DHT22;44928;53.074;6.646;2024-02-15T01:40:18;11.40;99.90
59146;DHT22;44928;53.074;6.646;2024-02-15T01:42:45;11.40;99.90
59146;DHT22;44928;53.074;6.646;2024-02-15T01:45:10;11.40;99.90
59146;DHT22;44928;53.074;6.646;2024-02-15T01:47:40;11.40;99.90
59146;DHT22;44928;53.074;6.646;2024-02-15T01:50:06;11.40;99.90
59146;DHT22;44928;53.074;6.646;2024-02-15T01:52:33;11.40;99.90
59146;DHT22;44928;53.074;6.646;2024-02-15T01:54:59;11.40;99.90
59146;DHT22;44928;53.074;6.646;2024-02-15T01:57:28;11.40;99.90
59146;DHT22;44928;53.074;6.646;2024-02-15T01:59:55;11.40;99.90
59146;DHT22;44928;53.074;6.646;2024-02-15T02:02:22;11.40;99.90
59146;DHT22;44928;53.074;6.646;2024-02-15T02:04:50;11.40;99.90
59146;DHT22;44928;53.074;6.646;2024-02-15T02:07:16;11.40;99.90
59146;DHT22;44928;53.074;6.646;2024-02-15T02:09:42;11.40;99.90
59146;DHT22;44928;53.074;6.646;2024-02-15T02:12:08;11.40;99.90
59146;DHT22;44928;53.074;6.646;2024-02-15T02:14:34;11.40;99.90
59146;DHT22;44928;53.074;6.646;2024-02-15T02:17:21;11.40;99.90
59146;DHT22;44928;53.074;6.646;2024-02-15T02:19:47;11.40;99.90
59146;DHT22;44928;53.074;6.646;2024-02-15T02:22:16;11.40;99.90
59146;DHT22;44928;53.074;6.646;2024-02-15T02:25:07;11.40;99.90
59146;DHT22;44928;53.074;6.646;2024-02-15T02:27:36;11.40;99.90
59146;DHT22;44928;53.074;6.646;2024-02-15T02:30:12;11.40;99.90
59146;DHT22;44928;53.074;6.646;2024-02-15T02:32:43;11.40;99.90
59146;DHT22;44928;53.074;6.646;2024-02-15T02:35:09;11.40;99.90
59146;DHT22;44928;53.074;6.646;2024-02-15T02:37:40;11.40;99.90
59146;DHT22;44928;53.074;6.646;2024-02-15T02:40:07;11.40;99.90
59146;DHT22;44928;53.074;6.646;2024-02-15T02:42:50;11.40;99.90
59146;DHT22;44928;53.074;6.646;2024-02-15T02:45:21;11.40;99.90
59146;DHT22;44928;53.074;6.646;2024-02-15T02:47:52;11.40;99.90
59146;DHT22;44928;53.074;6.646;2024-02-15T02:50:18;11.50;99.90
59146;DHT22;44928;53.074;6.646;2024-02-15T02:52:45;11.50;99.90
59146;DHT22;44928;53.074;6.646;2024-02-15T02:55:10;11.50;99.90
59146;DHT22;44928;53.074;6.646;2024-02-15T02:57:37;11.50;99.90
59146;DHT22;44928;53.074;6.646;2024-02-15T03:00:08;11.50;99.90
59146;DHT22;44928;53.074;6.646;2024-02-15T03:02:39;11.50;99.90
59146;DHT22;44928;53.074;6.646;2024-02-15T03:05:05;11.50;99.90
59146;DHT22;44928;53.074;6.646;2024-02-15T03:07:38;11.50;99.90
59146;DHT22;44928;53.074;6.646;2024-02-15T03:10:06;11.50;99.90
59146;DHT22;44928;53.074;6.646;2024-02-15T03:12:38;11.50;99.90
59146;DHT22;44928;53.074;6.646;2024-02-15T03:15:05;11.50;99.90
59146;DHT22;44928;53.074;6.646;2024-02-15T03:17:38;11.50;99.90
59146;DHT22;44928;53.074;6.646;2024-02-15T03:20:06;11.50;99.90
59146;DHT22;44928;53.074;6.646;2024-02-15T03:22:37;11.50;99.90
59146;DHT22;44928;53.074;6.646;2024-02-15T03:25:06;11.50;99.90
59146;DHT22;44928;53.074;6.646;2024-02-15T03:27:36;11.50;99.90
59146;DHT22;44928;53.074;6.646;2024-02-15T03:30:06;11.50;99.90
59146;DHT22;44928;53.074;6.646;2024-02-15T03:32:32;11.50;99.90
59146;DHT22;44928;53.074;6.646;2024-02-15T03:34:58;11.50;99.90
59146;DHT22;44928;53.074;6.646;2024-02-15T03:37:26;11.50;99.90
59146;DHT22;44928;53.074;6.646;2024-02-15T03:39:52;11.50;99.90
59146;DHT22;44928;53.074;6.646;2024-02-15T03:42:18;11.50;99.90
59146;DHT22;44928;53.074;6.646;2024-02-15T03:44:44;11.50;99.90
59146;DHT22;44928;53.074;6.646;2024-02-15T03:47:10;11.50;99.90
59146;DHT22;44928;53.074;6.646;2024-02-15T03:49:39;11.50;99.90
59146;DHT22;44928;53.074;6.646;2024-02-15T03:52:07;11.50;99.90
59146;DHT22;44928;53.074;6.646;2024-02-15T03:54:34;11.50;99.90
59146;DHT22;44928;53.074;6.646;2024-02-15T03:57:00;11.50;99.90
59146;DHT22;44928;53.074;6.646;2024-02-15T03:59:26;11.50;99.90
59146;DHT22;44928;53.074;6.646;2024-02-15T04:01:55;11.50;99.90
59146;DHT22;44928;53.074;6.646;2024-02-15T04:04:22;11.50;99.90
59146;DHT22;44928;53.074;6.646;2024-02-15T04:06:51;11.50;99.90
59146;DHT22;44928;53.074;6.646;2024-02-15T04:09:18;11.50;99.90
59146;DHT22;44928;53.074;6.646;2024-02-15T04:11:44;11.50;99.90
59146;DHT22;44928;53.074;6.646;2024-02-15T04:14:12;11.50;99.90
59146;DHT22;44928;53.074;6.646;2024-02-15T04:16:39;11.50;99.90
59146;DHT22;44928;53.074;6.646;2024-02-15T04:19:05;11.50;99.90
59146;DHT22;44928;53.074;6.646;2024-02-15T04:21:31;11.50;99.90
59146;DHT22;44928;53.074;6.646;2024-02-15T04:23:56;11.50;99.90
59146;DHT22;44928;53.074;6.646;2024-02-15T04:26:22;11.50;99.90
59146;DHT22;44928;53.074;6.646;2024-02-15T04:28:53;11.50;99.90
59146;DHT22;44928;53.074;6.646;2024-02-15T04:31:19;11.50;99.90
59146;DHT22;44928;53.074;6.646;2024-02-15T04:33:52;11.60;99.90
59146;DHT22;44928;53.074;6.646;2024-02-15T04:36:18;11.50;99.90
59146;DHT22;44928;53.074;6.646;2024-02-15T04:38:49;11.60;99.90
59146;DHT22;44928;53.074;6.646;2024-02-15T04:41:16;11.60;99.90
59146;DHT22;44928;53.074;6.646;2024-02-15T04:43:48;11.60;99.90
59146;DHT22;44928;53.074;6.646;2024-02-15T04:46:14;11.60;99.90
59146;DHT22;44928;53.074;6.646;2024-02-15T04:48:43;11.60;99.90
59146;DHT22;44928;53.074;6.646;2024-02-15T04:51:10;11.60;99.90
59146;DHT22;44928;53.074;6.646;2024-02-15T04:53:36;11.60;99.90
59146;DHT22;44928;53.074;6.646;2024-02-15T04:56:05;11.60;99.90
59146;DHT22;44928;53.074;6.646;2024-02-15T04:58:37;11.70;99.90
59146;DHT22;44928;53.074;6.646;2024-02-15T05:01:03;11.70;99.90
59146;DHT22;44928;53.074;6.646;2024-02-15T05:03:32;11.70;99.90
59146;DHT22;44928;53.074;6.646;2024-02-15T05:06:00;11.70;99.90
59146;DHT22;44928;53.074;6.646;2024-02-15T05:08:26;11.70;99.90
59146;DHT22;44928;53.074;6.646;2024-02-15T05:10:54;11.80;99.90
59146;DHT22;44928;53.074;6.646;2024-02-15T05:13:24;11.80;99.90
59146;DHT22;44928;53.074;6.646;2024-02-15T05:15:50;11.70;99.90
59146;DHT22;44928;53.074;6.646;2024-02-15T05:18:16;11.80;99.90
59146;DHT22;44928;53.074;6.646;2024-02-15T05:20:42;11.80;99.90
59146;DHT22;44928;53.074;6.646;2024-02-15T05:23:08;11.80;99.90
59146;DHT22;44928;53.074;6.646;2024-02-15T05:25:34;11.70;99.90
59146;DHT22;44928;53.074;6.646;2024-02-15T05:28:01;11.70;99.90
59146;DHT22;44928;53.074;6.646;2024-02-15T05:30:27;11.80;99.90
59146;DHT22;44928;53.074;6.646;2024-02-15T05:32:53;11.80;99.90
59146;DHT22;44928;53.074;6.646;2024-02-15T05:35:19;11.80;99.90
59146;DHT22;44928;53.074;6.646;2024-02-15T05:37:45;11.80;99.90
59146;DHT22;44928;53.074;6.646;2024-02-15T05:40:11;11.80;99.90
59146;DHT22;44928;53.074;6.646;2024-02-15T05:42:43;11.80;99.90
59146;DHT22;44928;53.074;6.646;2024-02-15T05:45:30;11.80;99.90
59146;DHT22;44928;53.074;6.646;2024-02-15T05:48:00;11.80;99.90
59146;DHT22;44928;53.074;6.646;2024-02-15T05:50:26;11.80;99.90
59146;DHT22;44928;53.074;6.646;2024-02-15T05:52:54;11.80;99.90
59146;DHT22;44928;53.074;6.646;2024-02-15T05:55:20;11.80;99.90
59146;DHT22;44928;53.074;6.646;2024-02-15T05:57:46;11.80;99.90
59146;DHT22;44928;53.074;6.646;2024-02-15T06:00:12;11.80;99.90
59146;DHT22;44928;53.074;6.646;2024-02-15T06:02:38;11.80;99.90
59146;DHT22;44928;53.074;6.646;2024-02-15T06:05:05;11.80;99.90
59146;DHT22;44928;53.074;6.646;2024-02-15T06:07:31;11.80;99.90
59146;DHT22;44928;53.074;6.646;2024-02-15T06:09:57;11.80;99.90
59146;DHT22;44928;53.074;6.646;2024-02-15T06:12:28;11.80;99.90
59146;DHT22;44928;53.074;6.646;2024-02-15T06:14:54;11.80;99.90
59146;DHT22;44928;53.074;6.646;2024-02-15T06:17:20;11.80;99.90
59146;DHT22;44928;53.074;6.646;2024-02-15T06:19:46;11.80;99.90
59146;DHT22;44928;53.074;6.646;2024-02-15T06:22:12;11.90;99.90
59146;DHT22;44928;53.074;6.646;2024-02-15T06:24:38;11.80;99.90
59146;DHT22;44928;53.074;6.646;2024-02-15T06:27:05;11.90;99.90
59146;DHT22;44928;53.074;6.646;2024-02-15T06:29:31;11.90;99.90
59146;DHT22;44928;53.074;6.646;2024-02-15T06:32:15;11.90;99.90
59146;DHT22;44928;53.074;6.646;2024-02-15T06:35:00;11.90;99.90
59146;DHT22;44928;53.074;6.646;2024-02-15T06:37:44;11.90;99.90
59146;DHT22;44928;53.074;6.646;2024-02-15T06:40:28;11.90;99.90
59146;DHT22;44928;53.074;6.646;2024-02-15T06:42:56;11.90;99.90
59146;DHT22;44928;53.074;6.646;2024-02-15T06:45:22;11.90;99.90
59146;DHT22;44928;53.074;6.646;2024-02-15T06:47:48;11.90;99.90
59146;DHT22;44928;53.074;6.646;2024-02-15T06:50:14;11.90;99.90
59146;DHT22;44928;53.074;6.646;2024-02-15T06:52:43;11.90;99.90
59146;DHT22;44928;53.074;6.646;2024-02-15T06:55:09;11.90;99.90
59146;DHT22;44928;53.074;6.646;2024-02-15T06:57:40;11.90;99.90
59146;DHT22;44928;53.074;6.646;2024-02-15T07:00:07;11.90;99.90
59146;DHT22;44928;53.074;6.646;2024-02-15T07:02:34;11.90;99.90
59146;DHT22;44928;53.074;6.646;2024-02-15T07:04:59;11.90;99.90
59146;DHT22;44928;53.074;6.646;2024-02-15T07:07:26;11.90;99.90
59146;DHT22;44928;53.074;6.646;2024-02-15T07:09:52;11.90;99.90
59146;DHT22;44928;53.074;6.646;2024-02-15T07:12:18;11.90;99.90
59146;DHT22;44928;53.074;6.646;2024-02-15T07:14:46;11.90;99.90
59146;DHT22;44928;53.074;6.646;2024-02-15T07:17:12;12.00;99.90
59146;DHT22;44928;53.074;6.646;2024-02-15T07:19:44;11.90;99.90
59146;DHT22;44928;53.074;6.646;2024-02-15T07:22:10;12.00;99.90
59146;DHT22;44928;53.074;6.646;2024-02-15T07:24:37;12.00;99.90
59146;DHT22;44928;53.074;6.646;2024-02-15T07:27:06;11.90;99.90
59146;DHT22;44928;53.074;6.646;2024-02-15T07:29:34;11.90;99.90
59146;DHT22;44928;53.074;6.646;2024-02-15T07:32:03;11.90;99.90
59146;DHT22;44928;53.074;6.646;2024-02-15T07:34:32;11.90;99.90
59146;DHT22;44928;53.074;6.646;2024-02-15T07:37:02;11.90;99.90
59146;DHT22;44928;53.074;6.646;2024-02-15T07:39:28;11.90;99.90
59146;DHT22;44928;53.074;6.646;2024-02-15T07:41:54;11.90;99.90
59146;DHT22;44928;53.074;6.646;2024-02-15T07:44:20;11.90;99.90
59146;DHT22;44928;53.074;6.646;2024-02-15T07:46:47;11.90;99.90
59146;DHT22;44928;53.074;6.646;2024-02-15T07:49:13;11.90;99.90
59146;DHT22;44928;53.074;6.646;2024-02-15T07:51:39;11.90;99.90
59146;DHT22;44928;53.074;6.646;2024-02-15T07:54:05;11.90;99.90
59146;DHT22;44928;53.074;6.646;2024-02-15T07:56:31;11.90;99.90
59146;DHT22;44928;53.074;6.646;2024-02-15T07:58:57;11.90;99.90
59146;DHT22;44928;53.074;6.646;2024-02-15T08:01:23;11.90;99.90
59146;DHT22;44928;53.074;6.646;2024-02-15T08:03:49;11.90;99.90
59146;DHT22;44928;53.074;6.646;2024-02-15T08:06:16;11.90;99.90
59146;DHT22;44928;53.074;6.646;2024-02-15T08:08:43;11.90;99.90
59146;DHT22;44928;53.074;6.646;2024-02-15T08:11:13;11.90;99.90
59146;DHT22;44928;53.074;6.646;2024-02-15T08:16:11;11.90;99.90
59146;DHT22;44928;53.074;6.646;2024-02-15T08:18:38;11.90;99.90
59146;DHT22;44928;53.074;6.646;2024-02-15T08:21:05;11.90;99.90
59146;DHT22;44928;53.074;6.646;2024-02-15T08:23:31;11.90;99.90
59146;DHT22;44928;53.074;6.646;2024-02-15T08:25:57;11.90;99.90
59146;DHT22;44928;53.074;6.646;2024-02-15T08:28:23;11.90;99.90
59146;DHT22;44928;53.074;6.646;2024-02-15T08:30:51;11.90;99.90
59146;DHT22;44928;53.074;6.646;2024-02-15T08:33:17;11.90;99.90
59146;DHT22;44928;53.074;6.646;2024-02-15T08:35:45;11.90;99.90
59146;DHT22;44928;53.074;6.646;2024-02-15T08:38:10;11.90;99.90
59146;DHT22;44928;53.074;6.646;2024-02-15T08:40:36;11.90;99.90
59146;DHT22;44928;53.074;6.646;2024-02-15T08:43:02;11.90;99.90
59146;DHT22;44928;53.074;6.646;2024-02-15T08:45:28;11.90;99.90
59146;DHT22;44928;53.074;6.646;2024-02-15T08:47:53;11.90;99.90
59146;DHT22;44928;53.074;6.646;2024-02-15T08:50:19;11.90;99.90
59146;DHT22;44928;53.074;6.646;2024-02-15T08:52:48;11.90;99.90
59146;DHT22;44928;53.074;6.646;2024-02-15T08:55:15;11.90;99.90
59146;DHT22;44928;53.074;6.646;2024-02-15T08:57:41;12.00;99.90
59146;DHT22;44928;53.074;6.646;2024-02-15T09:00:10;12.00;99.90
59146;DHT22;44928;53.074;6.646;2024-02-15T09:02:45;12.00;99.90
59146;DHT22;44928;53.074;6.646;2024-02-15T09:05:12;12.00;99.90
59146;DHT22;44928;53.074;6.646;2024-02-15T09:07:41;12.00;99.90
59146;DHT22;44928;53.074;6.646;2024-02-15T09:10:12;12.00;99.90
59146;DHT22;44928;53.074;6.646;2024-02-15T09:12:43;12.00;99.90
59146;DHT22;44928;53.074;6.646;2024-02-15T09:15:10;12.00;99.90
59146;DHT22;44928;53.074;6.646;2024-02-15T09:17:36;12.00;99.90
59146;DHT22;44928;53.074;6.646;2024-02-15T09:22:32;12.00;99.90
59146;DHT22;44928;53.074;6.646;2024-02-15T09:24:58;12.00;99.90
59146;DHT22;44928;53.074;6.646;2024-02-15T09:27:24;12.00;99.90
59146;DHT22;44928;53.074;6.646;2024-02-15T09:29:50;12.00;99.90
59146;DHT22;44928;53.074;6.646;2024-02-15T09:32:16;12.00;99.90
59146;DHT22;44928;53.074;6.646;2024-02-15T09:34:41;12.00;99.90
59146;DHT22;44928;53.074;6.646;2024-02-15T09:37:07;12.00;99.90
59146;DHT22;44928;53.074;6.646;2024-02-15T09:39:33;12.00;99.90
59146;DHT22;44928;53.074;6.646;2024-02-15T09:42:00;12.00;99.90
59146;DHT22;44928;53.074;6.646;2024-02-15T09:44:26;12.10;99.90
59146;DHT22;44928;53.074;6.646;2024-02-15T09:47:04;12.10;99.90
59146;DHT22;44928;53.074;6.646;2024-02-15T09:49:35;12.10;99.90
59146;DHT22;44928;53.074;6.646;2024-02-15T09:52:03;12.10;99.90
59146;DHT22;44928;53.074;6.646;2024-02-15T09:54:30;12.10;99.90
59146;DHT22;44928;53.074;6.646;2024-02-15T09:56:59;12.10;99.90
59146;DHT22;44928;53.074;6.646;2024-02-15T09:59:25;12.10;99.90
59146;DHT22;44928;53.074;6.646;2024-02-15T10:01:52;12.20;99.90
59146;DHT22;44928;53.074;6.646;2024-02-15T10:04:21;12.20;99.90
59146;DHT22;44928;53.074;6.646;2024-02-15T10:06:47;12.20;99.90
59146;DHT22;44928;53.074;6.646;2024-02-15T10:09:31;12.20;99.90
59146;DHT22;44928;53.074;6.646;2024-02-15T10:11:59;12.20;99.90
59146;DHT22;44928;53.074;6.646;2024-02-15T10:14:26;12.20;99.90
59146;DHT22;44928;53.074;6.646;2024-02-15T10:16:53;12.20;99.90
59146;DHT22;44928;53.074;6.646;2024-02-15T10:19:22;12.20;99.90
59146;DHT22;44928;53.074;6.646;2024-02-15T10:21:54;12.30;99.90
59146;DHT22;44928;53.074;6.646;2024-02-15T10:24:23;12.30;99.90
59146;DHT22;44928;53.074;6.646;2024-02-15T10:26:50;12.30;99.90
59146;DHT22;44928;53.074;6.646;2024-02-15T10:29:17;12.30;99.90
59146;DHT22;44928;53.074;6.646;2024-02-15T10:31:54;12.30;99.90
59146;DHT22;44928;53.074;6.646;2024-02-15T10:34:20;12.30;99.90
59146;DHT22;44928;53.074;6.646;2024-02-15T10:36:46;12.40;99.90
59146;DHT22;44928;53.074;6.646;2024-02-15T10:41:51;12.40;99.90
59146;DHT22;44928;53.074;6.646;2024-02-15T10:44:22;12.40;99.90
59146;DHT22;44928;53.074;6.646;2024-02-15T10:46:50;12.40;99.90
59146;DHT22;44928;53.074;6.646;2024-02-15T10:49:20;12.40;99.90
59146;DHT22;44928;53.074;6.646;2024-02-15T10:51:59;12.50;99.90
59146;DHT22;44928;53.074;6.646;2024-02-15T10:55:04;12.50;99.90
59146;DHT22;44928;53.074;6.646;2024-02-15T10:57:37;12.50;99.90
59146;DHT22;44928;53.074;6.646;2024-02-15T11:00:06;12.50;99.90
59146;DHT22;44928;53.074;6.646;2024-02-15T11:02:46;12.50;99.90
59146;DHT22;44928;53.074;6.646;2024-02-15T11:05:14;12.60;99.90
59146;DHT22;44928;53.074;6.646;2024-02-15T11:07:46;12.60;99.90
59146;DHT22;44928;53.074;6.646;2024-02-15T11:10:12;12.60;99.90
59146;DHT22;44928;53.074;6.646;2024-02-15T11:12:43;12.60;99.90
59146;DHT22;44928;53.074;6.646;2024-02-15T11:15:11;12.60;99.90
59146;DHT22;44928;53.074;6.646;2024-02-15T11:20:09;12.60;99.90
59146;DHT22;44928;53.074;6.646;2024-02-15T11:22:37;12.70;99.90
59146;DHT22;44928;53.074;6.646;2024-02-15T11:25:05;12.70;99.90
59146;DHT22;44928;53.074;6.646;2024-02-15T11:27:37;12.70;99.90
59146;DHT22;44928;53.074;6.646;2024-02-15T11:30:05;12.80;99.90
59146;DHT22;44928;53.074;6.646;2024-02-15T11:32:50;12.80;99.90
59146;DHT22;44928;53.074;6.646;2024-02-15T11:35:20;12.80;99.90
59146;DHT22;44928;53.074;6.646;2024-02-15T11:42:52;12.90;99.90
59146;DHT22;44928;53.074;6.646;2024-02-15T11:45:19;12.90;99.90
59146;DHT22;44928;53.074;6.646;2024-02-15T11:47:53;12.90;99.90
59146;DHT22;44928;53.074;6.646;2024-02-15T11:50:21;12.90;99.90
59146;DHT22;44928;53.074;6.646;2024-02-15T11:52:51;12.90;99.90
59146;DHT22;44928;53.074;6.646;2024-02-15T11:55:21;12.90;99.90
59146;DHT22;44928;53.074;6.646;2024-02-15T11:57:57;13.00;99.90
59146;DHT22;44928;53.074;6.646;2024-02-15T12:00:31;13.00;99.90
59146;DHT22;44928;53.074;6.646;2024-02-15T12:03:17;12.90;99.90
59146;DHT22;44928;53.074;6.646;2024-02-15T12:06:02;12.90;99.90
59146;DHT22;44928;53.074;6.646;2024-02-15T12:08:47;12.90;99.90
59146;DHT22;44928;53.074;6.646;2024-02-15T12:11:32;12.90;99.90
59146;DHT22;44928;53.074;6.646;2024-02-15T12:14:17;12.90;99.90
59146;DHT22;44928;53.074;6.646;2024-02-15T12:19:48;12.90;99.90
59146;DHT22;44928;53.074;6.646;2024-02-15T12:22:17;12.90;99.90
59146;DHT22;44928;53.074;6.646;2024-02-15T12:24:53;12.90;99.90
59146;DHT22;44928;53.074;6.646;2024-02-15T12:27:19;12.90;99.90
59146;DHT22;44928;53.074;6.646;2024-02-15T12:29:52;12.80;99.90
59146;DHT22;44928;53.074;6.646;2024-02-15T12:32:23;12.90;99.90
59146;DHT22;44928;53.074;6.646;2024-02-15T12:34:50;12.90;99.90
59146;DHT22;44928;53.074;6.646;2024-02-15T12:37:20;12.90;99.90
59146;DHT22;44928;53.074;6.646;2024-02-15T12:39:48;12.90;99.90
59146;DHT22;44928;53.074;6.646;2024-02-15T12:42:15;12.80;99.90
59146;DHT22;44928;53.074;6.646;2024-02-15T12:44:46;12.80;99.90
59146;DHT22;44928;53.074;6.646;2024-02-15T12:47:22;12.80;99.90
59146;DHT22;44928;53.074;6.646;2024-02-15T12:49:48;12.80;99.90
59146;DHT22;44928;53.074;6.646;2024-02-15T12:52:34;12.80;99.90
59146;DHT22;44928;53.074;6.646;2024-02-15T12:55:20;12.80;99.90
59146;DHT22;44928;53.074;6.646;2024-02-15T12:57:54;12.80;99.90
59146;DHT22;44928;53.074;6.646;2024-02-15T13:00:23;12.80;99.90
59146;DHT22;44928;53.074;6.646;2024-02-15T13:02:54;12.80;99.90
59146;DHT22;44928;53.074;6.646;2024-02-15T13:05:22;12.80;99.90
59146;DHT22;44928;53.074;6.646;2024-02-15T13:07:49;12.70;99.90
59146;DHT22;44928;53.074;6.646;2024-02-15T13:10:16;12.80;99.90
59146;DHT22;44928;53.074;6.646;2024-02-15T13:12:43;12.80;99.90
59146;DHT22;44928;53.074;6.646;2024-02-15T13:15:12;12.80;99.90
59146;DHT22;44928;53.074;6.646;2024-02-15T13:17:47;12.70;99.90
59146;DHT22;44928;53.074;6.646;2024-02-15T13:20:20;12.70;99.90
59146;DHT22;44928;53.074;6.646;2024-02-15T13:22:53;12.70;99.90
59146;DHT22;44928;53.074;6.646;2024-02-15T13:25:19;12.70;99.90
59146;DHT22;44928;53.074;6.646;2024-02-15T13:27:47;12.70;99.90
59146;DHT22;44928;53.074;6.646;2024-02-15T13:30:13;12.80;99.90
59146;DHT22;44928;53.074;6.646;2024-02-15T13:32:40;12.80;99.90
59146;DHT22;44928;53.074;6.646;2024-02-15T13:35:09;12.70;99.90
59146;DHT22;44928;53.074;6.646;2024-02-15T13:37:51;12.80;99.90
59146;DHT22;44928;53.074;6.646;2024-02-15T13:40:21;12.70;99.90
59146;DHT22;44928;53.074;6.646;2024-02-15T13:42:50;12.70;99.90
59146;DHT22;44928;53.074;6.646;2024-02-15T13:45:23;12.70;99.90
59146;DHT22;44928;53.074;6.646;2024-02-15T13:47:50;12.70;99.90
59146;DHT22;44928;53.074;6.646;2024-02-15T13:50:16;12.70;99.90
59146;DHT22;44928;53.074;6.646;2024-02-15T13:52:45;12.70;99.90
59146;DHT22;44928;53.074;6.646;2024-02-15T13:55:12;12.70;99.90
59146;DHT22;44928;53.074;6.646;2024-02-15T13:57:46;12.70;99.90
59146;DHT22;44928;53.074;6.646;2024-02-15T14:00:14;12.70;99.90
59146;DHT22;44928;53.074;6.646;2024-02-15T14:02:53;12.70;99.90
59146;DHT22;44928;53.074;6.646;2024-02-15T14:05:21;12.70;99.90
59146;DHT22;44928;53.074;6.646;2024-02-15T14:07:55;12.70;99.90
59146;DHT22;44928;53.074;6.646;2024-02-15T14:10:25;12.80;99.90
59146;DHT22;44928;53.074;6.646;2024-02-15T14:12:52;12.80;99.90
59146;DHT22;44928;53.074;6.646;2024-02-15T14:15:18;12.70;99.90
59146;DHT22;44928;53.074;6.646;2024-02-15T14:17:45;12.70;99.90
59146;DHT22;44928;53.074;6.646;2024-02-15T14:20:11;12.80;99.90
59146;DHT22;44928;53.074;6.646;2024-02-15T14:22:48;12.70;99.90
59146;DHT22;44928;53.074;6.646;2024-02-15T14:25:15;12.80;99.90
59146;DHT22;44928;53.074;6.646;2024-02-15T14:27:41;12.80;99.90
59146;DHT22;44928;53.074;6.646;2024-02-15T14:30:08;12.80;99.90
59146;DHT22;44928;53.074;6.646;2024-02-15T14:32:53;12.80;99.90
59146;DHT22;44928;53.074;6.646;2024-02-15T14:35:39;12.80;99.90
59146;DHT22;44928;53.074;6.646;2024-02-15T14:38:07;12.80;99.90
59146;DHT22;44928;53.074;6.646;2024-02-15T14:40:45;12.80;99.90
59146;DHT22;44928;53.074;6.646;2024-02-15T14:43:16;12.80;99.90
59146;DHT22;44928;53.074;6.646;2024-02-15T14:45:43;12.80;99.90
59146;DHT22;44928;53.074;6.646;2024-02-15T14:48:12;12.80;99.90
59146;DHT22;44928;53.074;6.646;2024-02-15T14:50:42;12.80;99.90
59146;DHT22;44928;53.074;6.646;2024-02-15T14:53:08;12.80;99.90
59146;DHT22;44928;53.074;6.646;2024-02-15T14:55:37;12.80;99.90
59146;DHT22;44928;53.074;6.646;2024-02-15T14:58:08;12.80;99.90
59146;DHT22;44928;53.074;6.646;2024-02-15T15:00:35;12.80;99.90
59146;DHT22;44928;53.074;6.646;2024-02-15T15:03:03;12.80;99.90
59146;DHT22;44928;53.074;6.646;2024-02-15T15:05:29;12.80;99.90
59146;DHT22;44928;53.074;6.646;2024-02-15T15:08:13;12.80;99.90
59146;DHT22;44928;53.074;6.646;2024-02-15T15:10:58;12.90;99.90
59146;DHT22;44928;53.074;6.646;2024-02-15T15:13:42;12.90;99.90
59146;DHT22;44928;53.074;6.646;2024-02-15T15:16:08;12.90;99.90
59146;DHT22;44928;53.074;6.646;2024-02-15T15:18:39;12.90;99.90
59146;DHT22;44928;53.074;6.646;2024-02-15T15:21:04;12.90;99.90
59146;DHT22;44928;53.074;6.646;2024-02-15T15:23:30;12.90;99.90
59146;DHT22;44928;53.074;6.646;2024-02-15T15:26:02;12.90;99.90
59146;DHT22;44928;53.074;6.646;2024-02-15T15:28:28;12.90;99.90
59146;DHT22;44928;53.074;6.646;2024-02-15T15:30:54;12.90;99.90
59146;DHT22;44928;53.074;6.646;2024-02-15T15:33:20;13.00;99.90
59146;DHT22;44928;53.074;6.646;2024-02-15T15:35:47;13.00;99.90
59146;DHT22;44928;53.074;6.646;2024-02-15T15:38:14;13.00;99.90
59146;DHT22;44928;53.074;6.646;2024-02-15T15:40:40;13.00;99.90
59146;DHT22;44928;53.074;6.646;2024-02-15T15:43:07;13.00;99.90
59146;DHT22;44928;53.074;6.646;2024-02-15T15:45:34;13.00;99.90
59146;DHT22;44928;53.074;6.646;2024-02-15T15:48:01;13.00;99.90
59146;DHT22;44928;53.074;6.646;2024-02-15T15:50:29;13.00;99.90
59146;DHT22;44928;53.074;6.646;2024-02-15T15:53:02;13.10;99.90
59146;DHT22;44928;53.074;6.646;2024-02-15T15:55:28;13.10;99.90
59146;DHT22;44928;53.074;6.646;2024-02-15T15:57:55;13.00;99.90